Piney, Arkansas
Current Conditions -  °F | °C
As of 6:53 AM on Wednesday 22 Oct 2014 (Local Time) from KHOT Reporting Station
Light Rain Light Rain  
Wind Chill: 50°   Ceiling: 100
Heat Index: 50°   Visibility: 0.25mi
Dew Point: 49°   Wind: 0mph
Humidity: 96%   Direction: NA
Pressure: 30.18"   Gusts: NA
Location:  34.5331°N, 93.0035°W
Report Text: KHOT 221153Z AUTO 00000KT 1/4SM -RA FG VV001 10/09 A3018 RMK AO2 RAB31 SLP215 P0000 60000 T01000094 10128 20089 51011
Loading
Personal Weather Stations






























Interactive Weather Map
Tropical Storm Tracking
New forecast layout! Learn more

10-Day Weather Forecast

Advertisements
Track Severe Weather on mobile